createdAt,value
2023-01-08T00:02:25.761Z,77.40
2023-01-08T00:04:52.377Z,77.30
2023-01-08T00:07:19.177Z,76.00
2023-01-08T00:09:47.708Z,76.50
2023-01-08T00:12:14.347Z,75.70
2023-01-08T00:14:40.949Z,75.60
2023-01-08T00:17:08.571Z,76.10
2023-01-08T00:19:35.221Z,76.10
2023-01-08T00:22:01.874Z,76.10
2023-01-08T00:24:28.483Z,76.20
2023-01-08T00:26:55.061Z,76.00
2023-01-08T00:29:21.701Z,76.20
2023-01-08T00:31:48.309Z,76.70
2023-01-08T00:34:14.939Z,77.00
2023-01-08T00:36:41.673Z,77.50
2023-01-08T00:39:08.314Z,77.70
2023-01-08T00:41:34.937Z,77.40
2023-01-08T00:44:01.564Z,77.40
2023-01-08T00:46:28.305Z,77.20
2023-01-08T00:48:54.887Z,76.80
2023-01-08T00:51:21.542Z,77.70
2023-01-08T00:53:48.222Z,76.60
2023-01-08T00:56:14.881Z,77.10
2023-01-08T00:58:41.511Z,76.80
2023-01-08T01:01:13.565Z,76.60
2023-01-08T01:03:40.822Z,76.70
2023-01-08T01:06:08.299Z,76.90
2023-01-08T01:08:35.515Z,77.00
2023-01-08T01:11:10.201Z,77.00
2023-01-08T01:13:36.993Z,77.00
2023-01-08T01:16:04.262Z,77.00
2023-01-08T01:18:31.652Z,76.60
2023-01-08T01:20:58.356Z,77.20
2023-01-08T01:23:25.009Z,77.30
2023-01-08T01:25:51.730Z,76.90
2023-01-08T01:28:18.375Z,77.50
2023-01-08T01:30:45.142Z,77.20
2023-01-08T01:33:11.836Z,77.40
2023-01-08T01:35:38.443Z,77.40
2023-01-08T01:38:05.071Z,77.70
2023-01-08T01:40:31.712Z,77.80
2023-01-08T01:42:58.368Z,77.90
2023-01-08T01:45:30.055Z,78.40
2023-01-08T01:48:17.135Z,78.60
2023-01-08T01:50:48.441Z,78.80
2023-01-08T01:53:18.144Z,79.00
2023-01-08T01:55:46.418Z,79.00
2023-01-08T01:58:39.372Z,79.10
2023-01-08T02:01:09.515Z,79.40
2023-01-08T02:03:38.407Z,79.90
2023-01-08T02:06:17.508Z,79.80
2023-01-08T02:08:57.215Z,80.10
2023-01-08T02:11:28.919Z,80.30
2023-01-08T02:14:16.202Z,80.60
2023-01-08T02:16:59.891Z,80.60
2023-01-08T02:19:46.199Z,81.00
2023-01-08T02:22:25.636Z,81.50
2023-01-08T02:25:03.165Z,81.90
2023-01-08T02:27:31.886Z,82.20
2023-01-08T02:29:59.155Z,82.50
2023-01-08T02:32:34.226Z,82.50
2023-01-08T02:35:00.927Z,82.70
2023-01-08T02:37:27.623Z,83.30
2023-01-08T02:40:10.963Z,83.70
2023-01-08T02:42:51.009Z,84.40
2023-01-08T02:45:36.364Z,84.40
2023-01-08T02:48:09.363Z,84.70
2023-01-08T02:50:49.027Z,85.00
2023-01-08T02:53:32.351Z,85.20
2023-01-08T02:56:15.580Z,85.20
2023-01-08T02:58:43.631Z,85.50
2023-01-08T03:01:13.002Z,85.90
2023-01-08T03:03:43.597Z,85.90
2023-01-08T03:06:15.582Z,86.40
2023-01-08T03:08:44.248Z,86.90
2023-01-08T03:11:12.477Z,87.20
2023-01-08T03:14:30.255Z,87.50
2023-01-08T03:17:14.552Z,87.60
2023-01-08T03:19:47.313Z,87.80
2023-01-08T03:22:16.518Z,87.80
2023-01-08T03:24:46.105Z,88.10
2023-01-08T03:27:17.598Z,88.10
2023-01-08T03:29:46.519Z,88.10
2023-01-08T03:32:16.644Z,88.40
2023-01-08T03:34:47.283Z,88.40
2023-01-08T03:37:16.148Z,88.50
2023-01-08T03:40:05.633Z,88.50
2023-01-08T03:42:32.788Z,88.60
2023-01-08T03:45:00.989Z,88.80
2023-01-08T03:47:30.643Z,88.90
2023-01-08T03:50:01.356Z,89.30
2023-01-08T03:52:31.659Z,89.60
2023-01-08T03:54:58.527Z,89.80
2023-01-08T03:57:25.467Z,90.30
2023-01-08T03:59:52.057Z,90.70
2023-01-08T04:02:18.986Z,91.30
2023-01-08T04:04:45.722Z,92.00
2023-01-08T04:07:12.755Z,92.00
2023-01-08T04:09:39.446Z,92.60
2023-01-08T04:12:06.383Z,93.00
2023-01-08T04:14:33.029Z,93.40
2023-01-08T04:16:59.759Z,94.00
2023-01-08T04:19:26.356Z,94.10
2023-01-08T04:21:53.480Z,94.80
2023-01-08T04:24:20.600Z,94.80
2023-01-08T04:26:47.338Z,95.10
2023-01-08T04:29:14.320Z,95.20
2023-01-08T04:31:41.421Z,95.70
2023-01-08T04:34:08.072Z,96.20
2023-01-08T04:36:34.677Z,96.60
2023-01-08T04:39:03.864Z,97.10
2023-01-08T04:41:30.626Z,97.30
2023-01-08T04:43:57.269Z,97.70
2023-01-08T04:46:23.956Z,98.20
2023-01-08T04:48:50.633Z,98.60
2023-01-08T04:51:17.220Z,99.00
2023-01-08T04:53:45.417Z,99.40
2023-01-08T04:56:12.135Z,99.70
2023-01-08T04:58:39.777Z,99.90
2023-01-08T05:01:19.045Z,99.90
2023-01-08T05:03:45.724Z,99.90
2023-01-08T05:06:12.334Z,99.90
2023-01-08T05:08:38.960Z,99.90
2023-01-08T05:11:05.639Z,99.90
2023-01-08T05:13:32.328Z,99.90
2023-01-08T05:16:00.317Z,99.90
2023-01-08T05:18:27.820Z,99.90
2023-01-08T05:20:54.471Z,99.90
2023-01-08T05:23:21.243Z,99.90
2023-01-08T05:25:47.882Z,99.90
2023-01-08T05:28:14.468Z,99.90
2023-01-08T05:30:41.186Z,99.90
2023-01-08T05:33:07.787Z,99.90
2023-01-08T05:35:34.374Z,99.90
2023-01-08T05:38:00.966Z,99.90
2023-01-08T05:40:27.605Z,99.90
2023-01-08T05:42:54.232Z,99.90
2023-01-08T05:45:20.900Z,99.90
2023-01-08T05:47:47.674Z,99.90
2023-01-08T05:50:14.341Z,99.90
2023-01-08T05:52:40.968Z,99.90
2023-01-08T05:55:07.922Z,99.90
2023-01-08T05:57:34.608Z,99.90
2023-01-08T06:00:01.224Z,99.90
2023-01-08T06:02:27.976Z,99.90
2023-01-08T06:04:54.629Z,99.90
2023-01-08T06:07:21.290Z,99.90
2023-01-08T06:09:47.925Z,99.90
2023-01-08T06:12:14.536Z,99.90
2023-01-08T06:14:41.157Z,99.90
2023-01-08T06:17:07.848Z,99.90
2023-01-08T06:19:34.456Z,99.90
2023-01-08T06:22:01.124Z,99.90
2023-01-08T06:24:27.764Z,99.90
2023-01-08T06:26:54.358Z,99.90
2023-01-08T06:29:21.003Z,99.90
2023-01-08T06:31:47.591Z,99.90
2023-01-08T06:34:14.271Z,99.90
2023-01-08T06:36:40.964Z,99.90
2023-01-08T06:39:08.294Z,99.90
2023-01-08T06:41:34.968Z,99.90
2023-01-08T06:44:01.803Z,99.90
2023-01-08T06:46:28.680Z,99.90
2023-01-08T06:48:55.322Z,99.90
2023-01-08T06:51:21.998Z,99.90
2023-01-08T06:53:48.948Z,99.90
2023-01-08T06:56:15.627Z,99.90
2023-01-08T06:58:42.239Z,99.90
2023-01-08T07:01:14.416Z,99.90
2023-01-08T07:03:41.394Z,99.90
2023-01-08T07:06:14.330Z,99.90
2023-01-08T07:08:41.012Z,99.90
2023-01-08T07:11:08.053Z,99.90
2023-01-08T07:13:34.780Z,99.90
2023-01-08T07:16:13.501Z,99.90
2023-01-08T07:18:40.213Z,99.90
2023-01-08T07:21:08.107Z,99.90
2023-01-08T07:23:35.518Z,99.90
2023-01-08T07:26:03.258Z,99.90
2023-01-08T07:28:30.480Z,99.90
2023-01-08T07:30:57.175Z,99.90
2023-01-08T07:33:23.848Z,99.90
2023-01-08T07:35:57.090Z,99.90
2023-01-08T07:38:23.974Z,99.90
2023-01-08T07:40:50.683Z,99.90
2023-01-08T07:43:17.512Z,99.90
2023-01-08T07:45:44.217Z,99.90
2023-01-08T07:48:15.544Z,99.90
2023-01-08T07:50:43.748Z,99.90
2023-01-08T07:53:12.038Z,99.90
2023-01-08T07:55:38.821Z,99.90
2023-01-08T07:58:13.305Z,99.90
2023-01-08T08:00:40.351Z,99.90
2023-01-08T08:03:11.297Z,99.90
2023-01-08T08:05:38.331Z,99.90
2023-01-08T08:08:12.276Z,99.90
2023-01-08T08:10:40.681Z,99.90
2023-01-08T08:13:07.656Z,99.90
2023-01-08T08:15:36.261Z,99.90
2023-01-08T08:18:03.683Z,99.90
2023-01-08T08:20:30.372Z,99.90
2023-01-08T08:23:15.090Z,99.90
2023-01-08T08:25:42.531Z,99.90
2023-01-08T08:28:11.679Z,99.90
2023-01-08T08:30:42.163Z,99.90
2023-01-08T08:33:10.076Z,99.90
2023-01-08T08:35:37.531Z,99.90
2023-01-08T08:38:04.907Z,99.90
2023-01-08T08:40:32.032Z,99.90
2023-01-08T08:43:00.524Z,99.90
2023-01-08T08:45:27.588Z,99.90
2023-01-08T08:47:54.538Z,99.90
2023-01-08T08:50:22.058Z,99.90
2023-01-08T08:52:49.884Z,99.90
2023-01-08T08:55:17.409Z,99.90
2023-01-08T08:57:46.166Z,99.90
2023-01-08T09:00:13.666Z,99.90
2023-01-08T09:02:40.530Z,99.90
2023-01-08T09:05:08.338Z,99.90
2023-01-08T09:07:35.027Z,99.90
2023-01-08T09:10:01.807Z,99.90
2023-01-08T09:12:28.446Z,99.90
2023-01-08T09:14:56.980Z,99.90
2023-01-08T09:17:25.704Z,99.90
2023-01-08T09:19:52.580Z,99.90
2023-01-08T09:22:19.580Z,99.90
2023-01-08T09:24:46.511Z,99.90
2023-01-08T09:27:13.776Z,99.90
2023-01-08T09:29:40.512Z,99.90
2023-01-08T09:32:07.816Z,99.90
2023-01-08T09:34:36.216Z,99.90
2023-01-08T09:37:03.321Z,99.90
2023-01-08T09:39:29.933Z,99.90
2023-01-08T09:41:58.180Z,99.90
2023-01-08T09:44:30.105Z,99.90
2023-01-08T09:46:57.372Z,99.90
2023-01-08T09:49:41.663Z,99.90
2023-01-08T09:52:12.003Z,99.90
2023-01-08T09:54:39.779Z,99.90
2023-01-08T09:57:06.807Z,99.90
2023-01-08T09:59:33.412Z,99.90
2023-01-08T10:02:00.378Z,99.90
2023-01-08T10:04:30.276Z,99.90
2023-01-08T10:07:13.393Z,99.90
2023-01-08T10:09:40.728Z,99.90
2023-01-08T10:12:10.198Z,99.90
2023-01-08T10:14:40.120Z,99.90
2023-01-08T10:17:15.891Z,99.90
2023-01-08T10:19:42.714Z,99.90
2023-01-08T10:22:16.508Z,99.90
2023-01-08T10:24:43.379Z,99.90
2023-01-08T10:27:16.830Z,99.90
2023-01-08T10:29:43.869Z,99.90
2023-01-08T10:32:29.977Z,99.90
2023-01-08T10:34:58.520Z,99.90
2023-01-08T10:37:43.518Z,99.90
2023-01-08T10:40:22.703Z,99.90
2023-01-08T10:42:51.248Z,99.90
2023-01-08T10:45:27.929Z,99.90
2023-01-08T10:48:00.729Z,99.90
2023-01-08T10:50:33.044Z,99.90
2023-01-08T10:53:05.451Z,99.90
2023-01-08T10:55:37.584Z,99.90
2023-01-08T10:58:09.093Z,99.90
2023-01-08T11:00:37.255Z,99.90
2023-01-08T11:03:10.045Z,99.90
2023-01-08T11:05:39.268Z,99.90
2023-01-08T11:08:14.745Z,99.90
2023-01-08T11:10:41.613Z,99.90
2023-01-08T11:13:17.053Z,99.90
2023-01-08T11:15:44.158Z,99.90
2023-01-08T11:18:20.292Z,99.90
2023-01-08T11:20:49.106Z,99.90
2023-01-08T11:23:26.537Z,99.90
2023-01-08T11:26:08.301Z,99.90
2023-01-08T11:29:07.632Z,99.90
2023-01-08T11:31:40.107Z,99.90
2023-01-08T11:34:17.811Z,99.90
2023-01-08T11:36:52.258Z,99.90
2023-01-08T11:39:19.387Z,99.90
2023-01-08T11:41:48.914Z,99.90
2023-01-08T11:44:39.520Z,99.90
2023-01-08T11:47:30.952Z,99.90
2023-01-08T11:50:21.816Z,99.90
2023-01-08T11:53:23.424Z,99.90
2023-01-08T11:56:07.929Z,99.90
2023-01-08T11:59:22.282Z,99.90
2023-01-08T12:01:49.962Z,99.90
2023-01-08T12:04:42.079Z,99.90
2023-01-08T12:07:49.803Z,99.90
2023-01-08T12:10:22.206Z,99.90
2023-01-08T12:13:14.472Z,99.40
2023-01-08T12:16:21.042Z,99.70
2023-01-08T12:19:03.706Z,99.10
2023-01-08T12:21:38.116Z,98.70
2023-01-08T12:24:23.627Z,98.20
2023-01-08T12:27:15.621Z,97.90
2023-01-08T12:29:53.742Z,96.50
2023-01-08T12:32:55.712Z,96.20
2023-01-08T12:35:31.022Z,95.90
2023-01-08T12:38:22.247Z,96.30
2023-01-08T12:41:03.863Z,96.40
2023-01-08T12:43:38.946Z,97.20
2023-01-08T12:46:06.505Z,97.30
2023-01-08T12:48:37.978Z,97.00
2023-01-08T12:51:43.586Z,97.10
2023-01-08T12:54:32.235Z,97.50
2023-01-08T12:57:07.720Z,97.10
2023-01-08T12:59:37.336Z,96.60
2023-01-08T13:02:33.234Z,96.80
2023-01-08T13:05:28.374Z,96.90
2023-01-08T13:08:05.288Z,95.70
2023-01-08T13:10:32.027Z,95.90
2023-01-08T13:13:01.804Z,95.50
2023-01-08T13:15:30.742Z,94.40
2023-01-08T13:18:02.709Z,94.60
2023-01-08T13:20:31.678Z,93.80
2023-01-08T13:23:01.071Z,92.70
2023-01-08T13:25:38.855Z,93.70
2023-01-08T13:28:42.093Z,93.60
2023-01-08T13:31:27.061Z,93.00
2023-01-08T13:33:58.575Z,91.80
2023-01-08T13:36:31.945Z,92.40
2023-01-08T13:39:11.565Z,92.70
2023-01-08T13:41:46.059Z,92.50
2023-01-08T13:44:35.679Z,92.70
2023-01-08T13:47:07.251Z,92.50
2023-01-08T13:49:46.868Z,91.50
2023-01-08T13:52:42.721Z,92.60
2023-01-08T13:55:16.806Z,92.70
2023-01-08T13:57:50.814Z,92.80
2023-01-08T14:00:38.112Z,92.20
2023-01-08T14:03:04.796Z,91.60
2023-01-08T14:05:36.825Z,92.30
2023-01-08T14:08:03.583Z,92.00
2023-01-08T14:10:30.704Z,91.90
2023-01-08T14:13:09.738Z,91.40
2023-01-08T14:15:38.959Z,92.10
2023-01-08T14:18:06.261Z,91.60
2023-01-08T14:20:35.631Z,91.60
2023-01-08T14:23:08.453Z,92.40
2023-01-08T14:25:35.139Z,92.70
2023-01-08T14:28:05.156Z,92.50
2023-01-08T14:30:32.830Z,92.50
2023-01-08T14:33:00.650Z,93.10
2023-01-08T14:35:33.437Z,93.30
2023-01-08T14:38:01.939Z,93.40
2023-01-08T14:40:31.767Z,93.50
2023-01-08T14:43:02.199Z,93.60
2023-01-08T14:45:34.663Z,94.10
2023-01-08T14:48:08.291Z,93.50
2023-01-08T14:50:37.963Z,93.60
2023-01-08T14:53:26.018Z,93.80
2023-01-08T14:55:55.004Z,94.30
2023-01-08T14:58:27.622Z,94.80
2023-01-08T15:00:57.999Z,95.80
2023-01-08T15:03:37.888Z,96.80
2023-01-08T15:06:05.607Z,97.40
2023-01-08T15:08:41.209Z,97.90
2023-01-08T15:11:24.382Z,98.40
2023-01-08T15:13:53.054Z,99.30
2023-01-08T15:16:32.333Z,99.90
2023-01-08T15:19:02.048Z,99.90
2023-01-08T15:21:28.723Z,99.90
2023-01-08T15:23:57.602Z,99.90
2023-01-08T15:29:49.774Z,99.90
2023-01-08T15:32:16.361Z,99.90
2023-01-08T15:34:44.545Z,99.90
2023-01-08T15:37:11.826Z,99.90
2023-01-08T15:39:38.598Z,99.90
2023-01-08T15:42:43.222Z,99.90
2023-01-08T15:45:15.231Z,99.90
2023-01-08T15:47:41.910Z,99.90
2023-01-08T15:50:10.228Z,99.90
2023-01-08T15:52:39.800Z,99.70
2023-01-08T15:55:07.392Z,99.60
2023-01-08T15:57:34.040Z,99.80
2023-01-08T16:00:00.719Z,99.90
2023-01-08T16:02:27.462Z,99.70
2023-01-08T16:04:55.568Z,99.20
2023-01-08T16:07:22.697Z,98.80
2023-01-08T16:09:49.388Z,98.60
2023-01-08T16:12:16.007Z,98.90
2023-01-08T16:14:42.685Z,98.60
2023-01-08T16:17:10.005Z,98.70
2023-01-08T16:19:36.730Z,98.50
2023-01-08T16:22:04.545Z,98.40
2023-01-08T16:24:31.606Z,98.20
2023-01-08T16:26:58.310Z,98.20
2023-01-08T16:29:25.045Z,97.50
2023-01-08T16:31:51.731Z,97.50
2023-01-08T16:34:18.435Z,97.60
2023-01-08T16:36:45.088Z,97.50
2023-01-08T16:39:11.826Z,97.60
2023-01-08T16:41:38.551Z,97.50
2023-01-08T16:44:05.529Z,97.70
2023-01-08T16:46:32.335Z,97.70
2023-01-08T16:48:59.015Z,98.10
2023-01-08T16:51:27.816Z,97.70
2023-01-08T16:53:54.614Z,97.40
2023-01-08T16:56:21.294Z,97.90
2023-01-08T16:58:51.006Z,97.50
2023-01-08T17:01:18.014Z,97.70
2023-01-08T17:03:44.993Z,97.40
2023-01-08T17:06:13.303Z,97.50
2023-01-08T17:08:41.276Z,96.80
2023-01-08T17:11:08.828Z,97.00
2023-01-08T17:13:35.457Z,97.20
2023-01-08T17:16:06.649Z,97.30
2023-01-08T17:18:33.315Z,97.60
2023-01-08T17:21:00.000Z,97.40
2023-01-08T17:23:29.421Z,97.60
2023-01-08T17:25:57.771Z,97.80
2023-01-08T17:28:25.193Z,98.10
2023-01-08T17:31:00.910Z,98.00
2023-01-08T17:33:27.501Z,98.10
2023-01-08T17:35:54.108Z,98.00
2023-01-08T17:38:20.742Z,98.10
2023-01-08T17:40:47.340Z,97.90
2023-01-08T17:43:13.953Z,97.60
2023-01-08T17:45:40.755Z,97.50
2023-01-08T17:48:07.415Z,97.40
2023-01-08T17:50:34.349Z,97.50
2023-01-08T17:53:00.959Z,97.20
2023-01-08T17:55:27.853Z,97.30
2023-01-08T17:57:54.538Z,97.30
2023-01-08T18:00:21.556Z,97.30
2023-01-08T18:02:48.229Z,97.40
2023-01-08T18:05:14.909Z,97.60
2023-01-08T18:07:41.535Z,97.20
2023-01-08T18:10:08.924Z,97.30
2023-01-08T18:12:35.574Z,97.00
2023-01-08T18:15:02.289Z,97.00
2023-01-08T18:17:31.186Z,96.80
2023-01-08T18:19:57.864Z,96.40
2023-01-08T18:22:24.558Z,96.60
2023-01-08T18:24:51.434Z,96.70
2023-01-08T18:27:18.082Z,96.70
2023-01-08T18:29:44.740Z,96.60
2023-01-08T18:32:11.409Z,96.50
2023-01-08T18:34:38.896Z,96.50
2023-01-08T18:37:05.597Z,96.70
2023-01-08T18:39:32.336Z,96.60
2023-01-08T18:42:17.548Z,96.70
2023-01-08T18:44:44.212Z,96.30
2023-01-08T18:47:12.505Z,96.40
2023-01-08T18:49:39.160Z,96.30
2023-01-08T18:52:05.979Z,96.40
2023-01-08T18:54:35.196Z,96.50
2023-01-08T18:57:02.155Z,96.20
2023-01-08T18:59:28.784Z,96.10
2023-01-08T19:01:55.670Z,95.80
2023-01-08T19:04:22.553Z,95.70
2023-01-08T19:06:49.343Z,95.50
2023-01-08T19:09:16.794Z,95.30
2023-01-08T19:11:43.808Z,95.20
2023-01-08T19:14:12.678Z,95.10
2023-01-08T19:16:39.848Z,95.10
2023-01-08T19:19:06.988Z,95.20
2023-01-08T19:21:33.633Z,95.20
2023-01-08T19:24:00.261Z,95.20
2023-01-08T19:26:26.904Z,95.10
2023-01-08T19:28:53.531Z,95.30
2023-01-08T19:31:20.268Z,95.80
2023-01-08T19:33:46.873Z,95.90
2023-01-08T19:36:16.084Z,95.80
2023-01-08T19:38:43.841Z,95.40
2023-01-08T19:41:29.501Z,95.50
2023-01-08T19:43:56.808Z,95.80
2023-01-08T19:46:23.962Z,95.60
2023-01-08T19:48:50.714Z,95.70
2023-01-08T19:51:17.373Z,96.00
2023-01-08T19:53:44.080Z,95.90
2023-01-08T19:56:13.548Z,95.90
2023-01-08T19:58:40.397Z,96.10
2023-01-08T20:01:15.581Z,96.00
2023-01-08T20:03:42.766Z,95.90
2023-01-08T20:06:17.357Z,95.90
2023-01-08T20:08:46.209Z,95.50
2023-01-08T20:11:15.654Z,95.50
2023-01-08T20:13:42.541Z,95.40
2023-01-08T20:16:13.487Z,95.50
2023-01-08T20:18:40.244Z,95.40
2023-01-08T20:21:11.398Z,95.40
2023-01-08T20:23:38.416Z,95.30
2023-01-08T20:26:11.187Z,95.60
2023-01-08T20:28:39.264Z,95.30
2023-01-08T20:31:06.925Z,95.40
2023-01-08T20:33:35.327Z,95.60
2023-01-08T20:36:07.011Z,96.20
2023-01-08T20:38:33.670Z,95.40
2023-01-08T20:41:00.307Z,95.70
2023-01-08T20:43:27.138Z,95.90
2023-01-08T20:45:53.904Z,95.90
2023-01-08T20:48:20.553Z,96.00
2023-01-08T20:50:57.619Z,95.30
2023-01-08T20:53:24.463Z,95.00
2023-01-08T20:55:51.224Z,94.80
2023-01-08T20:58:18.282Z,94.80
2023-01-08T21:00:45.080Z,94.30
2023-01-08T21:03:12.527Z,94.30
2023-01-08T21:05:39.751Z,93.10
2023-01-08T21:08:07.592Z,92.40
2023-01-08T21:10:35.048Z,92.90
2023-01-08T21:13:01.992Z,92.40
2023-01-08T21:15:28.690Z,92.00
2023-01-08T21:17:55.305Z,92.30
2023-01-08T21:20:22.159Z,92.50
2023-01-08T21:22:48.840Z,92.80
2023-01-08T21:25:15.533Z,93.00
2023-01-08T21:27:42.145Z,93.10
2023-01-08T21:30:09.517Z,93.20
2023-01-08T21:32:37.128Z,93.20
2023-01-08T21:35:04.012Z,92.70
2023-01-08T21:37:31.615Z,92.50
2023-01-08T21:39:58.245Z,92.30
2023-01-08T21:42:43.358Z,92.50
2023-01-08T21:45:24.959Z,92.50
2023-01-08T21:47:53.023Z,92.60
2023-01-08T21:50:20.221Z,92.90
2023-01-08T21:53:05.380Z,93.10
2023-01-08T21:55:33.505Z,93.30
2023-01-08T21:58:00.348Z,93.50
2023-01-08T22:00:28.334Z,93.60
2023-01-08T22:02:55.124Z,93.80
2023-01-08T22:05:21.813Z,93.80
2023-01-08T22:07:48.417Z,93.70
2023-01-08T22:10:15.088Z,93.80
2023-01-08T22:12:42.046Z,94.10
2023-01-08T22:15:09.971Z,94.00
2023-01-08T22:17:36.969Z,93.90
2023-01-08T22:20:06.700Z,93.90
2023-01-08T22:22:33.435Z,93.70
2023-01-08T22:25:00.114Z,93.90
2023-01-08T22:27:26.721Z,93.90
2023-01-08T22:29:54.433Z,93.80
2023-01-08T22:32:21.121Z,94.00
2023-01-08T22:34:47.848Z,94.10
2023-01-08T22:37:14.499Z,94.40
2023-01-08T22:39:41.135Z,94.60
2023-01-08T22:42:07.859Z,95.00
2023-01-08T22:44:34.570Z,95.10
2023-01-08T22:47:02.561Z,95.30
2023-01-08T22:49:29.243Z,95.50
2023-01-08T22:51:57.058Z,95.60
2023-01-08T22:54:23.706Z,95.50
2023-01-08T22:56:50.306Z,95.40
2023-01-08T22:59:17.158Z,95.10
2023-01-08T23:01:43.853Z,94.90
2023-01-08T23:04:10.562Z,94.30
2023-01-08T23:06:37.263Z,93.70
2023-01-08T23:09:04.485Z,92.70
2023-01-08T23:11:33.221Z,92.50
2023-01-08T23:14:00.757Z,92.30
2023-01-08T23:16:27.504Z,91.90
2023-01-08T23:18:55.590Z,91.50
2023-01-08T23:21:23.860Z,91.20
2023-01-08T23:23:53.816Z,90.80
2023-01-08T23:26:26.789Z,90.80
2023-01-08T23:28:54.968Z,91.00
2023-01-08T23:31:25.276Z,91.20
2023-01-08T23:33:52.409Z,91.30
2023-01-08T23:36:21.130Z,91.50
2023-01-08T23:38:50.071Z,91.60
2023-01-08T23:41:17.491Z,91.70
2023-01-08T23:43:45.801Z,91.90
2023-01-08T23:46:13.514Z,92.20
2023-01-08T23:48:40.581Z,92.80
2023-01-08T23:51:07.566Z,93.10
2023-01-08T23:53:34.254Z,93.40
2023-01-08T23:56:00.949Z,93.70
2023-01-08T23:58:27.714Z,94.00
